sensor_id;sensor_type;location;lat;lon;timestamp;pressure;altitude;pressure_sealevel;temperature;humidity
60817;BME280;51921;51.518;-3.188;2022-12-15T00:01:26;100729.12;;;-2.89;60.04
60817;BME280;51921;51.518;-3.188;2022-12-15T00:03:51;100730.10;;;-2.63;60.07
60817;BME280;51921;51.518;-3.188;2022-12-15T00:06:17;100727.70;;;-3.49;61.38
60817;BME280;51921;51.518;-3.188;2022-12-15T00:08:43;100725.29;;;-3.27;60.91
60817;BME280;51921;51.518;-3.188;2022-12-15T00:11:08;100725.14;;;-4.32;64.23
60817;BME280;51921;51.518;-3.188;2022-12-15T00:13:34;100726.24;;;-3.94;63.48
60817;BME280;51921;51.518;-3.188;2022-12-15T00:16:00;100723.74;;;-5.78;66.78
60817;BME280;51921;51.518;-3.188;2022-12-15T00:18:26;100723.81;;;-4.70;64.16
60817;BME280;51921;51.518;-3.188;2022-12-15T00:20:56;100728.98;;;-3.77;61.57
60817;BME280;51921;51.518;-3.188;2022-12-15T00:23:17;100729.21;;;-3.02;58.16
60817;BME280;51921;51.518;-3.188;2022-12-15T00:25:43;100725.29;;;-2.49;59.31
60817;BME280;51921;51.518;-3.188;2022-12-15T00:28:09;100729.53;;;-2.61;59.05
60817;BME280;51921;51.518;-3.188;2022-12-15T00:30:35;100731.47;;;-3.20;58.73
60817;BME280;51921;51.518;-3.188;2022-12-15T00:33:07;100733.01;;;-4.62;63.09
60817;BME280;51921;51.518;-3.188;2022-12-15T00:35:26;100728.10;;;-3.07;61.18
60817;BME280;51921;51.518;-3.188;2022-12-15T00:37:52;100729.41;;;-3.66;59.69
60817;BME280;51921;51.518;-3.188;2022-12-15T00:40:18;100732.75;;;-3.56;61.35
60817;BME280;51921;51.518;-3.188;2022-12-15T00:42:43;100729.56;;;-2.67;57.06
60817;BME280;51921;51.518;-3.188;2022-12-15T00:45:09;100730.29;;;-3.19;60.38
60817;BME280;51921;51.518;-3.188;2022-12-15T00:47:35;100729.44;;;-3.63;60.81
60817;BME280;51921;51.518;-3.188;2022-12-15T00:50:00;100731.15;;;-4.39;61.41
60817;BME280;51921;51.518;-3.188;2022-12-15T00:52:26;100733.15;;;-5.97;66.27
60817;BME280;51921;51.518;-3.188;2022-12-15T00:54:52;100730.03;;;-5.51;66.74
60817;BME280;51921;51.518;-3.188;2022-12-15T00:57:17;100729.18;;;-6.23;66.52
60817;BME280;51921;51.518;-3.188;2022-12-15T00:59:43;100731.49;;;-7.67;72.57
60817;BME280;51921;51.518;-3.188;2022-12-15T01:02:09;100724.71;;;-6.07;71.65
60817;BME280;51921;51.518;-3.188;2022-12-15T01:04:35;100725.18;;;-4.52;65.20
60817;BME280;51921;51.518;-3.188;2022-12-15T01:07:00;100725.87;;;-4.76;65.66
60817;BME280;51921;51.518;-3.188;2022-12-15T01:09:26;100733.44;;;-4.58;65.11
60817;BME280;51921;51.518;-3.188;2022-12-15T01:11:52;100734.66;;;-4.54;65.45
60817;BME280;51921;51.518;-3.188;2022-12-15T01:14:17;100733.19;;;-3.73;63.91
60817;BME280;51921;51.518;-3.188;2022-12-15T01:16:43;100735.11;;;-4.20;64.91
60817;BME280;51921;51.518;-3.188;2022-12-15T01:19:08;100731.59;;;-4.27;65.22
60817;BME280;51921;51.518;-3.188;2022-12-15T01:21:34;100736.63;;;-2.89;63.48
60817;BME280;51921;51.518;-3.188;2022-12-15T01:24:00;100736.92;;;-3.41;62.50
60817;BME280;51921;51.518;-3.188;2022-12-15T01:26:25;100736.25;;;-3.94;63.32
60817;BME280;51921;51.518;-3.188;2022-12-15T01:28:51;100736.80;;;-3.66;63.13
60817;BME280;51921;51.518;-3.188;2022-12-15T01:31:17;100737.35;;;-4.06;63.14
60817;BME280;51921;51.518;-3.188;2022-12-15T01:33:43;100736.65;;;-3.55;62.99
60817;BME280;51921;51.518;-3.188;2022-12-15T01:36:09;100739.74;;;-3.53;62.86
60817;BME280;51921;51.518;-3.188;2022-12-15T01:38:34;100737.63;;;-3.56;61.73
60817;BME280;51921;51.518;-3.188;2022-12-15T01:41:02;100734.46;;;-3.64;62.65
60817;BME280;51921;51.518;-3.188;2022-12-15T01:43:29;100731.97;;;-4.86;63.13
60817;BME280;51921;51.518;-3.188;2022-12-15T01:45:55;100730.16;;;-5.45;65.77
60817;BME280;51921;51.518;-3.188;2022-12-15T01:48:21;100736.89;;;-3.24;61.93
60817;BME280;51921;51.518;-3.188;2022-12-15T01:50:46;100736.88;;;-4.20;63.01
60817;BME280;51921;51.518;-3.188;2022-12-15T01:53:08;100740.64;;;-3.36;61.25
60817;BME280;51921;51.518;-3.188;2022-12-15T01:55:33;100747.64;;;-3.00;59.83
60817;BME280;51921;51.518;-3.188;2022-12-15T01:58:01;100750.59;;;-3.37;60.57
60817;BME280;51921;51.518;-3.188;2022-12-15T02:00:25;100746.31;;;-5.12;63.94
60817;BME280;51921;51.518;-3.188;2022-12-15T02:02:51;100748.36;;;-5.73;65.86
60817;BME280;51921;51.518;-3.188;2022-12-15T02:05:17;100747.98;;;-5.56;66.02
60817;BME280;51921;51.518;-3.188;2022-12-15T02:07:42;100754.23;;;-3.99;61.96
60817;BME280;51921;51.518;-3.188;2022-12-15T02:10:09;100760.13;;;-3.32;60.61
60817;BME280;51921;51.518;-3.188;2022-12-15T02:12:39;100756.66;;;-3.24;60.23
60817;BME280;51921;51.518;-3.188;2022-12-15T02:15:10;100760.76;;;-2.68;59.52
60817;BME280;51921;51.518;-3.188;2022-12-15T02:17:32;100764.02;;;-2.92;59.07
60817;BME280;51921;51.518;-3.188;2022-12-15T02:22:24;100761.42;;;-2.73;58.82
60817;BME280;51921;51.518;-3.188;2022-12-15T02:24:55;100768.25;;;-3.83;61.41
60817;BME280;51921;51.518;-3.188;2022-12-15T02:27:20;100770.05;;;-3.40;61.44
60817;BME280;51921;51.518;-3.188;2022-12-15T02:29:51;100773.09;;;-4.63;60.53
60817;BME280;51921;51.518;-3.188;2022-12-15T02:32:03;100774.85;;;-5.23;65.77
60817;BME280;51921;51.518;-3.188;2022-12-15T02:34:31;100775.79;;;-4.75;64.48
60817;BME280;51921;51.518;-3.188;2022-12-15T02:36:54;100781.06;;;-5.40;69.95
60817;BME280;51921;51.518;-3.188;2022-12-15T02:39:17;100782.48;;;-4.96;67.53
60817;BME280;51921;51.518;-3.188;2022-12-15T02:41:45;100776.39;;;-4.91;65.13
60817;BME280;51921;51.518;-3.188;2022-12-15T02:44:11;100777.29;;;-3.35;63.64
60817;BME280;51921;51.518;-3.188;2022-12-15T02:46:40;100773.47;;;-3.71;64.03
60817;BME280;51921;51.518;-3.188;2022-12-15T02:49:06;100773.06;;;-3.21;60.26
60817;BME280;51921;51.518;-3.188;2022-12-15T02:51:37;100775.54;;;-3.88;62.41
60817;BME280;51921;51.518;-3.188;2022-12-15T02:54:05;100778.41;;;-5.22;64.34
60817;BME280;51921;51.518;-3.188;2022-12-15T02:56:23;100779.01;;;-3.90;62.34
60817;BME280;51921;51.518;-3.188;2022-12-15T02:58:47;100777.50;;;-4.15;63.41
60817;BME280;51921;51.518;-3.188;2022-12-15T03:01:12;100779.25;;;-3.09;60.94
60817;BME280;51921;51.518;-3.188;2022-12-15T03:03:34;100777.89;;;-3.24;61.19
60817;BME280;51921;51.518;-3.188;2022-12-15T03:06:01;100776.80;;;-2.71;59.15
60817;BME280;51921;51.518;-3.188;2022-12-15T03:08:26;100779.00;;;-6.50;67.15
60817;BME280;51921;51.518;-3.188;2022-12-15T03:10:52;100777.78;;;-6.62;69.62
60817;BME280;51921;51.518;-3.188;2022-12-15T03:13:16;100780.97;;;-6.58;76.51
60817;BME280;51921;51.518;-3.188;2022-12-15T03:15:42;100775.94;;;-4.49;67.17
60817;BME280;51921;51.518;-3.188;2022-12-15T03:18:08;100777.39;;;-4.20;64.76
60817;BME280;51921;51.518;-3.188;2022-12-15T03:20:34;100774.11;;;-4.59;65.06
60817;BME280;51921;51.518;-3.188;2022-12-15T03:22:59;100776.15;;;-3.85;65.44
60817;BME280;51921;51.518;-3.188;2022-12-15T03:25:25;100780.79;;;-6.03;67.47
60817;BME280;51921;51.518;-3.188;2022-12-15T03:27:51;100779.13;;;-4.06;64.94
60817;BME280;51921;51.518;-3.188;2022-12-15T03:30:17;100776.36;;;-3.62;63.15
60817;BME280;51921;51.518;-3.188;2022-12-15T03:32:43;100776.43;;;-3.82;62.26
60817;BME280;51921;51.518;-3.188;2022-12-15T03:35:09;100778.50;;;-4.70;63.17
60817;BME280;51921;51.518;-3.188;2022-12-15T03:37:34;100774.47;;;-4.76;65.63
60817;BME280;51921;51.518;-3.188;2022-12-15T03:40:00;100779.66;;;-6.68;68.45
60817;BME280;51921;51.518;-3.188;2022-12-15T03:42:26;100780.30;;;-7.26;73.05
60817;BME280;51921;51.518;-3.188;2022-12-15T03:44:51;100783.21;;;-7.81;76.10
60817;BME280;51921;51.518;-3.188;2022-12-15T03:47:17;100785.96;;;-8.14;81.67
60817;BME280;51921;51.518;-3.188;2022-12-15T03:49:43;100785.78;;;-7.94;84.58
60817;BME280;51921;51.518;-3.188;2022-12-15T03:52:08;100785.98;;;-8.36;86.71
60817;BME280;51921;51.518;-3.188;2022-12-15T03:54:34;100782.36;;;-9.26;90.40
60817;BME280;51921;51.518;-3.188;2022-12-15T03:57:00;100779.53;;;-9.09;93.29
60817;BME280;51921;51.518;-3.188;2022-12-15T03:59:25;100790.75;;;-7.26;88.70
60817;BME280;51921;51.518;-3.188;2022-12-15T04:01:50;100795.29;;;-7.92;86.60
60817;BME280;51921;51.518;-3.188;2022-12-15T04:04:16;100791.63;;;-6.40;81.53
60817;BME280;51921;51.518;-3.188;2022-12-15T04:06:42;100792.29;;;-4.59;74.73
60817;BME280;51921;51.518;-3.188;2022-12-15T04:09:08;100788.50;;;-5.36;72.66
60817;BME280;51921;51.518;-3.188;2022-12-15T04:11:33;100784.91;;;-4.84;72.33
60817;BME280;51921;51.518;-3.188;2022-12-15T04:13:59;100785.56;;;-5.22;71.20
60817;BME280;51921;51.518;-3.188;2022-12-15T04:16:25;100789.52;;;-5.58;69.83
60817;BME280;51921;51.518;-3.188;2022-12-15T04:18:51;100791.84;;;-5.64;67.91
60817;BME280;51921;51.518;-3.188;2022-12-15T04:21:16;100793.27;;;-5.84;68.86
60817;BME280;51921;51.518;-3.188;2022-12-15T04:23:42;100787.13;;;-6.20;72.36
60817;BME280;51921;51.518;-3.188;2022-12-15T04:26:06;100792.33;;;-8.53;80.87
60817;BME280;51921;51.518;-3.188;2022-12-15T04:28:32;100792.47;;;-8.15;82.65
60817;BME280;51921;51.518;-3.188;2022-12-15T04:31:02;100789.88;;;-5.56;75.66
60817;BME280;51921;51.518;-3.188;2022-12-15T04:33:23;100788.33;;;-5.08;72.12
60817;BME280;51921;51.518;-3.188;2022-12-15T04:35:48;100789.22;;;-4.00;68.22
60817;BME280;51921;51.518;-3.188;2022-12-15T04:38:14;100788.55;;;-4.18;67.33
60817;BME280;51921;51.518;-3.188;2022-12-15T04:40:40;100789.45;;;-4.13;65.62
60817;BME280;51921;51.518;-3.188;2022-12-15T04:43:05;100788.82;;;-4.85;66.02
60817;BME280;51921;51.518;-3.188;2022-12-15T04:45:31;100788.69;;;-5.29;68.19
60817;BME280;51921;51.518;-3.188;2022-12-15T04:47:58;100787.46;;;-5.13;65.49
60817;BME280;51921;51.518;-3.188;2022-12-15T04:50:23;100785.39;;;-5.27;66.85
60817;BME280;51921;51.518;-3.188;2022-12-15T04:52:49;100793.09;;;-4.68;64.92
60817;BME280;51921;51.518;-3.188;2022-12-15T04:55:14;100793.47;;;-5.12;65.36
60817;BME280;51921;51.518;-3.188;2022-12-15T04:57:39;100789.38;;;-4.47;62.11
60817;BME280;51921;51.518;-3.188;2022-12-15T05:00:05;100787.45;;;-4.55;64.25
60817;BME280;51921;51.518;-3.188;2022-12-15T05:02:30;100784.81;;;-3.87;62.84
60817;BME280;51921;51.518;-3.188;2022-12-15T05:04:56;100786.23;;;-5.62;65.15
60817;BME280;51921;51.518;-3.188;2022-12-15T05:07:24;100786.95;;;-5.75;66.98
60817;BME280;51921;51.518;-3.188;2022-12-15T05:09:47;100786.13;;;-6.56;71.76
60817;BME280;51921;51.518;-3.188;2022-12-15T05:12:13;100790.84;;;-8.75;76.85
60817;BME280;51921;51.518;-3.188;2022-12-15T05:14:39;100792.72;;;-8.92;83.95
60817;BME280;51921;51.518;-3.188;2022-12-15T05:17:04;100797.83;;;-9.14;89.32
60817;BME280;51921;51.518;-3.188;2022-12-15T05:19:30;100798.02;;;-6.24;82.31
60817;BME280;51921;51.518;-3.188;2022-12-15T05:21:56;100797.33;;;-5.64;75.22
60817;BME280;51921;51.518;-3.188;2022-12-15T05:24:22;100799.67;;;-5.13;70.25
60817;BME280;51921;51.518;-3.188;2022-12-15T05:26:48;100802.30;;;-5.35;69.07
60817;BME280;51921;51.518;-3.188;2022-12-15T05:29:14;100802.85;;;-5.87;68.69
60817;BME280;51921;51.518;-3.188;2022-12-15T05:31:40;100797.46;;;-5.28;68.06
60817;BME280;51921;51.518;-3.188;2022-12-15T05:34:06;100797.12;;;-5.18;69.10
60817;BME280;51921;51.518;-3.188;2022-12-15T05:36:32;100800.64;;;-4.15;64.48
60817;BME280;51921;51.518;-3.188;2022-12-15T05:38:57;100795.27;;;-4.65;63.99
60817;BME280;51921;51.518;-3.188;2022-12-15T05:41:23;100797.97;;;-6.82;66.96
60817;BME280;51921;51.518;-3.188;2022-12-15T05:43:49;100793.81;;;-7.40;72.24
60817;BME280;51921;51.518;-3.188;2022-12-15T05:46:14;100790.56;;;-6.07;72.85
60817;BME280;51921;51.518;-3.188;2022-12-15T05:48:39;100789.68;;;-6.15;70.96
60817;BME280;51921;51.518;-3.188;2022-12-15T05:51:05;100786.90;;;-5.87;69.68
60817;BME280;51921;51.518;-3.188;2022-12-15T05:53:29;100784.41;;;-5.83;68.53
60817;BME280;51921;51.518;-3.188;2022-12-15T05:56:00;100788.42;;;-5.51;65.77
60817;BME280;51921;51.518;-3.188;2022-12-15T05:58:21;100786.23;;;-6.10;67.77
60817;BME280;51921;51.518;-3.188;2022-12-15T06:00:46;100790.40;;;-5.56;66.60
60817;BME280;51921;51.518;-3.188;2022-12-15T06:03:11;100790.17;;;-5.68;66.95
60817;BME280;51921;51.518;-3.188;2022-12-15T06:05:37;100788.02;;;-5.58;66.23
60817;BME280;51921;51.518;-3.188;2022-12-15T06:08:03;100786.72;;;-4.86;63.68
60817;BME280;51921;51.518;-3.188;2022-12-15T06:10:28;100790.02;;;-5.73;67.41
60817;BME280;51921;51.518;-3.188;2022-12-15T06:12:54;100791.12;;;-5.36;65.85
60817;BME280;51921;51.518;-3.188;2022-12-15T06:15:20;100791.00;;;-5.16;65.54
60817;BME280;51921;51.518;-3.188;2022-12-15T06:17:46;100788.71;;;-4.88;65.35
60817;BME280;51921;51.518;-3.188;2022-12-15T06:20:11;100789.38;;;-4.45;63.97
60817;BME280;51921;51.518;-3.188;2022-12-15T06:22:38;100792.45;;;-4.61;64.69
60817;BME280;51921;51.518;-3.188;2022-12-15T06:25:03;100796.78;;;-5.40;66.03
60817;BME280;51921;51.518;-3.188;2022-12-15T06:27:28;100792.75;;;-4.93;63.95
60817;BME280;51921;51.518;-3.188;2022-12-15T06:29:53;100792.62;;;-6.59;69.60
60817;BME280;51921;51.518;-3.188;2022-12-15T06:32:19;100795.76;;;-5.97;67.22
60817;BME280;51921;51.518;-3.188;2022-12-15T06:34:46;100797.87;;;-7.20;68.63
60817;BME280;51921;51.518;-3.188;2022-12-15T06:37:10;100796.16;;;-6.53;69.77
60817;BME280;51921;51.518;-3.188;2022-12-15T06:39:36;100798.68;;;-9.69;80.25
60817;BME280;51921;51.518;-3.188;2022-12-15T06:42:01;100799.61;;;-9.05;85.87
60817;BME280;51921;51.518;-3.188;2022-12-15T06:44:26;100806.10;;;-10.35;91.62
60817;BME280;51921;51.518;-3.188;2022-12-15T06:46:51;100803.75;;;-7.77;86.16
60817;BME280;51921;51.518;-3.188;2022-12-15T06:49:17;100802.95;;;-8.07;84.84
60817;BME280;51921;51.518;-3.188;2022-12-15T06:51:42;100802.86;;;-6.95;79.83
60817;BME280;51921;51.518;-3.188;2022-12-15T06:54:08;100796.91;;;-5.60;73.58
60817;BME280;51921;51.518;-3.188;2022-12-15T06:56:35;100801.03;;;-6.24;71.98
60817;BME280;51921;51.518;-3.188;2022-12-15T06:58:59;100808.06;;;-6.68;72.89
60817;BME280;51921;51.518;-3.188;2022-12-15T07:01:25;100808.93;;;-6.16;72.85
60817;BME280;51921;51.518;-3.188;2022-12-15T07:03:50;100813.90;;;-6.01;70.63
60817;BME280;51921;51.518;-3.188;2022-12-15T07:06:15;100812.90;;;-5.80;69.72
60817;BME280;51921;51.518;-3.188;2022-12-15T07:08:48;100812.42;;;-5.31;68.15
60817;BME280;51921;51.518;-3.188;2022-12-15T07:11:08;100808.86;;;-5.24;65.54
60817;BME280;51921;51.518;-3.188;2022-12-15T07:13:32;100815.97;;;-6.70;72.58
60817;BME280;51921;51.518;-3.188;2022-12-15T07:15:58;100810.03;;;-6.74;72.95
60817;BME280;51921;51.518;-3.188;2022-12-15T07:18:22;100812.52;;;-6.72;71.86
60817;BME280;51921;51.518;-3.188;2022-12-15T07:20:48;100817.39;;;-7.45;77.19
60817;BME280;51921;51.518;-3.188;2022-12-15T07:23:14;100805.29;;;-6.39;73.98
60817;BME280;51921;51.518;-3.188;2022-12-15T07:25:39;100806.62;;;-5.97;70.73
60817;BME280;51921;51.518;-3.188;2022-12-15T07:28:06;100806.30;;;-5.83;67.32
60817;BME280;51921;51.518;-3.188;2022-12-15T07:30:32;100805.69;;;-5.92;67.15
60817;BME280;51921;51.518;-3.188;2022-12-15T07:32:57;100809.33;;;-6.11;65.41
60817;BME280;51921;51.518;-3.188;2022-12-15T07:35:23;100809.16;;;-5.61;63.67
60817;BME280;51921;51.518;-3.188;2022-12-15T07:37:49;100815.94;;;-5.60;63.35
60817;BME280;51921;51.518;-3.188;2022-12-15T07:40:15;100816.36;;;-5.85;64.57
60817;BME280;51921;51.518;-3.188;2022-12-15T07:42:41;100818.03;;;-5.79;64.35
60817;BME280;51921;51.518;-3.188;2022-12-15T07:45:07;100820.50;;;-5.08;62.71
60817;BME280;51921;51.518;-3.188;2022-12-15T07:47:32;100818.90;;;-6.19;65.23
60817;BME280;51921;51.518;-3.188;2022-12-15T07:49:58;100819.33;;;-5.96;63.41
60817;BME280;51921;51.518;-3.188;2022-12-15T07:52:24;100823.37;;;-5.24;61.90
60817;BME280;51921;51.518;-3.188;2022-12-15T07:54:50;100825.04;;;-5.10;62.63
60817;BME280;51921;51.518;-3.188;2022-12-15T07:57:16;100827.82;;;-4.88;62.84
60817;BME280;51921;51.518;-3.188;2022-12-15T07:59:42;100829.24;;;-5.13;62.45
60817;BME280;51921;51.518;-3.188;2022-12-15T08:02:08;100835.09;;;-4.90;61.23
60817;BME280;51921;51.518;-3.188;2022-12-15T08:04:33;100835.43;;;-5.96;62.34
60817;BME280;51921;51.518;-3.188;2022-12-15T08:06:59;100840.21;;;-5.63;64.01
60817;BME280;51921;51.518;-3.188;2022-12-15T08:09:25;100844.40;;;-5.69;65.68
60817;BME280;51921;51.518;-3.188;2022-12-15T08:11:49;100846.01;;;-5.61;63.11
60817;BME280;51921;51.518;-3.188;2022-12-15T08:14:15;100848.53;;;-6.43;66.87
60817;BME280;51921;51.518;-3.188;2022-12-15T08:16:41;100848.60;;;-4.98;63.47
60817;BME280;51921;51.518;-3.188;2022-12-15T08:19:08;100856.84;;;-8.10;69.80
60817;BME280;51921;51.518;-3.188;2022-12-15T08:21:32;100862.02;;;-7.70;73.34
60817;BME280;51921;51.518;-3.188;2022-12-15T08:23:57;100859.24;;;-6.63;70.29
60817;BME280;51921;51.518;-3.188;2022-12-15T08:26:23;100866.30;;;-7.56;71.87
60817;BME280;51921;51.518;-3.188;2022-12-15T08:28:47;100865.01;;;-6.30;69.26
60817;BME280;51921;51.518;-3.188;2022-12-15T08:31:15;100869.77;;;-6.40;71.23
60817;BME280;51921;51.518;-3.188;2022-12-15T08:33:38;100875.83;;;-6.09;70.47
60817;BME280;51921;51.518;-3.188;2022-12-15T08:36:06;100873.79;;;-5.90;67.27
60817;BME280;51921;51.518;-3.188;2022-12-15T08:38:30;100877.73;;;-5.55;65.49
60817;BME280;51921;51.518;-3.188;2022-12-15T08:40:54;100882.28;;;-4.88;64.25
60817;BME280;51921;51.518;-3.188;2022-12-15T08:43:19;100881.93;;;-5.21;63.02
60817;BME280;51921;51.518;-3.188;2022-12-15T08:45:45;100882.05;;;-4.76;63.83
60817;BME280;51921;51.518;-3.188;2022-12-15T08:48:11;100879.42;;;-4.15;62.84
60817;BME280;51921;51.518;-3.188;2022-12-15T08:50:36;100883.18;;;-5.81;65.71
60817;BME280;51921;51.518;-3.188;2022-12-15T08:53:01;100886.04;;;-6.15;67.65
60817;BME280;51921;51.518;-3.188;2022-12-15T08:55:27;100893.24;;;-7.82;75.82
60817;BME280;51921;51.518;-3.188;2022-12-15T08:57:53;100901.09;;;-6.72;72.88
60817;BME280;51921;51.518;-3.188;2022-12-15T09:00:18;100902.38;;;-5.52;69.32
60817;BME280;51921;51.518;-3.188;2022-12-15T09:02:43;100900.16;;;-5.60;69.01
60817;BME280;51921;51.518;-3.188;2022-12-15T09:05:08;100902.44;;;-5.92;69.25
60817;BME280;51921;51.518;-3.188;2022-12-15T09:07:34;100900.50;;;-5.09;65.34
60817;BME280;51921;51.518;-3.188;2022-12-15T09:10:00;100901.37;;;-4.78;65.08
60817;BME280;51921;51.518;-3.188;2022-12-15T09:12:25;100907.14;;;-5.26;66.24
60817;BME280;51921;51.518;-3.188;2022-12-15T09:14:51;100905.44;;;-5.06;66.61
60817;BME280;51921;51.518;-3.188;2022-12-15T09:17:16;100907.10;;;-5.03;64.72
60817;BME280;51921;51.518;-3.188;2022-12-15T09:19:41;100913.40;;;-5.29;65.41
60817;BME280;51921;51.518;-3.188;2022-12-15T09:22:07;100918.45;;;-4.26;65.96
60817;BME280;51921;51.518;-3.188;2022-12-15T09:24:32;100922.07;;;-4.48;64.47
60817;BME280;51921;51.518;-3.188;2022-12-15T09:26:57;100925.22;;;-3.39;62.76
60817;BME280;51921;51.518;-3.188;2022-12-15T09:29:22;100931.40;;;-3.37;61.65
60817;BME280;51921;51.518;-3.188;2022-12-15T09:31:48;100934.77;;;-2.88;60.06
60817;BME280;51921;51.518;-3.188;2022-12-15T09:34:14;100935.03;;;-4.31;62.53
60817;BME280;51921;51.518;-3.188;2022-12-15T09:36:39;100937.16;;;-3.79;62.22
60817;BME280;51921;51.518;-3.188;2022-12-15T09:39:05;100937.48;;;-3.62;61.77
60817;BME280;51921;51.518;-3.188;2022-12-15T09:41:31;100940.71;;;-3.82;62.43
60817;BME280;51921;51.518;-3.188;2022-12-15T09:43:58;100944.29;;;-4.46;63.04
60817;BME280;51921;51.518;-3.188;2022-12-15T09:46:26;100950.38;;;-4.55;65.99
60817;BME280;51921;51.518;-3.188;2022-12-15T09:48:48;100948.11;;;-3.29;63.66
60817;BME280;51921;51.518;-3.188;2022-12-15T09:51:16;100952.27;;;-2.67;61.99
60817;BME280;51921;51.518;-3.188;2022-12-15T09:53:39;100950.57;;;-2.95;60.40
60817;BME280;51921;51.518;-3.188;2022-12-15T09:56:10;100946.08;;;-2.88;60.20
60817;BME280;51921;51.518;-3.188;2022-12-15T09:58:38;100948.45;;;-2.83;59.83
60817;BME280;51921;51.518;-3.188;2022-12-15T10:00:59;100953.28;;;-2.72;59.07
60817;BME280;51921;51.518;-3.188;2022-12-15T10:03:32;100952.86;;;-2.88;60.06
60817;BME280;51921;51.518;-3.188;2022-12-15T10:05:57;100954.22;;;-2.49;58.75
60817;BME280;51921;51.518;-3.188;2022-12-15T10:08:13;100957.95;;;-2.52;57.16
60817;BME280;51921;51.518;-3.188;2022-12-15T10:10:42;100956.41;;;-4.01;60.71
60817;BME280;51921;51.518;-3.188;2022-12-15T10:13:09;100958.11;;;-4.93;63.55
60817;BME280;51921;51.518;-3.188;2022-12-15T10:15:36;100960.56;;;-3.85;62.35
60817;BME280;51921;51.518;-3.188;2022-12-15T10:18:00;100961.17;;;-3.03;62.05
60817;BME280;51921;51.518;-3.188;2022-12-15T10:20:22;100966.25;;;-4.46;64.02
60817;BME280;51921;51.518;-3.188;2022-12-15T10:22:46;100962.83;;;-2.98;63.10
60817;BME280;51921;51.518;-3.188;2022-12-15T10:25:16;100967.19;;;-2.61;60.58
60817;BME280;51921;51.518;-3.188;2022-12-15T10:27:47;100967.52;;;-1.60;60.08
60817;BME280;51921;51.518;-3.188;2022-12-15T10:30:04;100966.51;;;-2.35;60.27
60817;BME280;51921;51.518;-3.188;2022-12-15T10:32:35;100966.39;;;-2.46;58.41
60817;BME280;51921;51.518;-3.188;2022-12-15T10:34:53;100967.11;;;-2.48;59.20
60817;BME280;51921;51.518;-3.188;2022-12-15T10:37:20;100966.89;;;-4.78;65.01
60817;BME280;51921;51.518;-3.188;2022-12-15T10:39:46;100962.13;;;-5.46;71.53
60817;BME280;51921;51.518;-3.188;2022-12-15T10:42:12;100957.16;;;-5.40;71.63
60817;BME280;51921;51.518;-3.188;2022-12-15T10:44:37;100955.81;;;-4.06;70.45
60817;BME280;51921;51.518;-3.188;2022-12-15T10:47:09;100954.39;;;-3.83;66.88
60817;BME280;51921;51.518;-3.188;2022-12-15T10:49:26;100955.32;;;-3.96;69.51
60817;BME280;51921;51.518;-3.188;2022-12-15T10:51:55;100952.18;;;-2.35;65.47
60817;BME280;51921;51.518;-3.188;2022-12-15T10:54:18;100952.29;;;-2.77;64.55
60817;BME280;51921;51.518;-3.188;2022-12-15T10:56:48;100953.84;;;-1.32;60.25
60817;BME280;51921;51.518;-3.188;2022-12-15T10:59:23;100946.31;;;-1.27;60.66
60817;BME280;51921;51.518;-3.188;2022-12-15T11:01:34;100942.60;;;-0.99;59.15
60817;BME280;51921;51.518;-3.188;2022-12-15T11:04:00;100942.88;;;-1.17;59.23
60817;BME280;51921;51.518;-3.188;2022-12-15T11:06:27;100945.31;;;-0.11;57.52
60817;BME280;51921;51.518;-3.188;2022-12-15T11:08:53;100941.38;;;-0.73;56.76
60817;BME280;51921;51.518;-3.188;2022-12-15T11:11:28;100936.64;;;0.41;54.05
60817;BME280;51921;51.518;-3.188;2022-12-15T11:16:14;100934.87;;;-0.41;53.61
60817;BME280;51921;51.518;-3.188;2022-12-15T11:18:37;100936.29;;;0.42;52.86
60817;BME280;51921;51.518;-3.188;2022-12-15T11:21:03;100942.86;;;0.71;52.51
60817;BME280;51921;51.518;-3.188;2022-12-15T11:23:42;100944.18;;;0.79;52.08
60817;BME280;51921;51.518;-3.188;2022-12-15T11:25:56;100941.02;;;0.77;52.02
60817;BME280;51921;51.518;-3.188;2022-12-15T11:28:19;100944.31;;;0.74;51.92
60817;BME280;51921;51.518;-3.188;2022-12-15T11:30:43;100946.27;;;1.11;50.85
60817;BME280;51921;51.518;-3.188;2022-12-15T11:33:07;100942.67;;;1.56;51.13
60817;BME280;51921;51.518;-3.188;2022-12-15T11:35:41;100942.24;;;1.19;51.25
60817;BME280;51921;51.518;-3.188;2022-12-15T11:38:04;100943.92;;;0.49;51.54
60817;BME280;51921;51.518;-3.188;2022-12-15T11:40:34;100943.72;;;1.53;50.89
60817;BME280;51921;51.518;-3.188;2022-12-15T11:43:00;100939.98;;;1.23;50.12
60817;BME280;51921;51.518;-3.188;2022-12-15T11:45:19;100944.28;;;1.69;50.52
60817;BME280;51921;51.518;-3.188;2022-12-15T11:47:43;100941.66;;;0.72;52.38
60817;BME280;51921;51.518;-3.188;2022-12-15T11:50:16;100941.89;;;0.45;51.92
60817;BME280;51921;51.518;-3.188;2022-12-15T11:52:42;100944.87;;;0.73;51.37
60817;BME280;51921;51.518;-3.188;2022-12-15T11:55:04;100942.98;;;1.92;50.14
60817;BME280;51921;51.518;-3.188;2022-12-15T11:57:42;100941.06;;;0.67;49.51
60817;BME280;51921;51.518;-3.188;2022-12-15T11:59:58;100942.51;;;1.41;48.82
60817;BME280;51921;51.518;-3.188;2022-12-15T12:02:26;100941.46;;;2.97;47.52
60817;BME280;51921;51.518;-3.188;2022-12-15T12:04:49;100939.62;;;1.45;51.48
60817;BME280;51921;51.518;-3.188;2022-12-15T12:07:10;100941.29;;;-0.74;54.34
60817;BME280;51921;51.518;-3.188;2022-12-15T12:09:33;100937.09;;;1.44;51.40
60817;BME280;51921;51.518;-3.188;2022-12-15T12:12:03;100940.25;;;3.12;48.41
60817;BME280;51921;51.518;-3.188;2022-12-15T12:14:30;100936.28;;;-1.52;55.64
60817;BME280;51921;51.518;-3.188;2022-12-15T12:16:52;100929.05;;;1.08;53.37
60817;BME280;51921;51.518;-3.188;2022-12-15T12:19:16;100927.87;;;0.04;54.20
60817;BME280;51921;51.518;-3.188;2022-12-15T12:21:41;100929.12;;;-0.36;54.83
60817;BME280;51921;51.518;-3.188;2022-12-15T12:24:08;100927.89;;;-2.24;61.75
60817;BME280;51921;51.518;-3.188;2022-12-15T12:26:34;100926.05;;;-1.53;59.60
60817;BME280;51921;51.518;-3.188;2022-12-15T12:28:59;100921.45;;;-1.01;62.05
60817;BME280;51921;51.518;-3.188;2022-12-15T12:31:25;100912.78;;;0.68;57.92
60817;BME280;51921;51.518;-3.188;2022-12-15T12:33:49;100911.01;;;0.76;53.70
60817;BME280;51921;51.518;-3.188;2022-12-15T12:36:13;100916.41;;;-0.44;56.55